Boo Sonier — WDG3281 — position and weather

sailwx.info

Track history (hours):
 
Tides and Currents Weather Stations Pressure Air Temp Water Temp Dewpoint Dewpoint Depression Visibility Wind Speed Wind Dir Waves Ship Positions

Boo Sonier

Owner: LeBeouf Bros. Towing, LLC, Houma, LA. More information available from US FCC via Universal Licensing System and Coast Guard Vessel Documentation Center.

Last reported at 2017-Jul-27 04:21 UTC. Time now 2017-Sep-25 17:18 UTC.
Position N 29°32' W 094°53'.
Warning: this ship's position is months out of date.

Length 21 m.

Type: Tug. MMSI: 367524420.

Date/timePositionNaut miles runAvg speedWind from/ knotsBaromVisibWave heightAir tempDewpointWater temp
2017-Jul-27 04:21N 29°32' W 094°53'2 6.4
2017-Jul-27 04:01N 29°33' W 094°55'3 6.3
2017-Jul-27 03:31N 29°36' W 094°57'3 6.3
2017-Jul-27 03:00N 29°39' W 094°58'3 6.1
2017-Jul-27 02:31N 29°42' W 094°60'3 5.0
2017-Jul-27 02:00N 29°44' W 095°02'3 5.8
2017-Jul-27 01:29N 29°46' W 095°04'4 5.7
2017-Jul-27 00:51N 29°44' W 095°08'4 0.1
2017-Jul-24 23:48N 29°44' W 095°12'2 6.4
2017-Jul-24 23:30N 29°45' W 095°10'3 6.2
2017-Jul-24 22:58N 29°45' W 095°06'2 4.7
2017-Jul-24 22:30N 29°45' W 095°04'3 6.7
2017-Jul-24 22:00N 29°42' W 095°01'1 2.1
2017-Jul-24 21:20N 29°42' W 095°03'0 0.0
2017-Jul-24 20:38N 29°42' W 095°03'0 0.0
2017-Jul-24 20:29N 29°42' W 095°03'0 0.0
2017-Jul-24 19:56N 29°42' W 095°03'0 0.0
2017-Jul-24 19:23N 29°42' W 095°03'0 0.0
2017-Jul-24 18:50N 29°42' W 095°03'0 0.0
2017-Jul-24 18:23N 29°42' W 095°03'0 0.0
2017-Jul-24 17:59N 29°42' W 095°03'0 0.0
2017-Jul-24 17:26N 29°42' W 095°03'0 0.0
2017-Jul-24 15:38N 29°42' W 095°03'0 0.0
2017-Jul-24 12:59N 29°42' W 095°03'0 0.0
2017-Jul-24 12:05N 29°42' W 095°03'0 0.1
2017-Jul-24 11:59N 29°42' W 095°03'0 0.0
2017-Jul-24 11:29N 29°42' W 095°03'0 0.0
2017-Jul-24 10:59N 29°42' W 095°03'0 0.0
2017-Jul-24 10:29N 29°42' W 095°03'0 0.0
2017-Jul-24 09:59N 29°42' W 095°03'0 0.0
2017-Jul-24 09:26N 29°42' W 095°03'0 0.0
2017-Jul-24 08:59N 29°42' W 095°03'0 0.0
2017-Jul-24 08:29N 29°42' W 095°03'0 0.0
2017-Jul-24 07:50N 29°42' W 095°03'0 0.0
2017-Jul-24 07:29N 29°42' W 095°03'0 0.0
2017-Jul-24 06:59N 29°42' W 095°03'0 0.0
2017-Jul-24 06:26N 29°42' W 095°03'0 0.0
2017-Jul-24 05:59N 29°42' W 095°03'0 0.0
2017-Jul-24 05:23N 29°42' W 095°03'0 0.0
2017-Jul-24 04:53N 29°42' W 095°03'0 0.0
2017-Jul-24 04:29N 29°42' W 095°03'0 0.0
2017-Jul-24 03:38N 29°42' W 095°03'0 0.0
2017-Jul-24 03:29N 29°42' W 095°03'0 0.0
2017-Jul-24 02:50N 29°42' W 095°03'0 0.0
2017-Jul-24 02:14N 29°42' W 095°03'0 0.0
2017-Jul-24 00:05N 29°42' W 095°03'0 0.0
2017-Jul-23 23:59N 29°42' W 095°03'0 0.0
2017-Jul-23 22:29N 29°42' W 095°03'0 0.0
2017-Jul-23 21:23N 29°42' W 095°03'0 0.0
2017-Jul-23 20:11N 29°42' W 095°03'0 0.0
2017-Jul-23 19:50N 29°42' W 095°03'0 0.0
2017-Jul-23 19:26N 29°42' W 095°03'0 0.0
2017-Jul-23 18:47N 29°42' W 095°03'0 0.0
2017-Jul-23 18:29N 29°42' W 095°03'0 0.0
2017-Jul-23 17:50N 29°42' W 095°03'0 0.0
2017-Jul-23 17:20N 29°42' W 095°03'0 0.0
2017-Jul-23 16:59N 29°42' W 095°03'0 0.0
2017-Jul-23 16:20N 29°42' W 095°03'0 0.0
2017-Jul-23 15:44N 29°42' W 095°03'0 0.0
2017-Jul-23 15:26N 29°42' W 095°03'0 0.0
2017-Jul-23 14:59N 29°42' W 095°03'0 0.0
2017-Jul-23 13:44N 29°42' W 095°03'0 0.0
2017-Jul-23 13:23N 29°42' W 095°03'0 0.0
2017-Jul-23 12:59N 29°42' W 095°03'0 0.0
2017-Jul-23 12:29N 29°42' W 095°03'0 0.0
2017-Jul-23 11:11N 29°42' W 095°03'0 0.0
2017-Jul-23 10:50N 29°42' W 095°03'0 0.0
2017-Jul-23 10:29N 29°42' W 095°03'0 0.0
2017-Jul-23 09:59N 29°42' W 095°03'0 0.0
2017-Jul-23 09:29N 29°42' W 095°03'0 0.0
2017-Jul-23 08:59N 29°42' W 095°03'0 0.0
2017-Jul-23 08:29N 29°42' W 095°03'0 0.0
2017-Jul-23 07:56N 29°42' W 095°03'0 0.0
2017-Jul-23 07:26N 29°42' W 095°03'0 0.0
2017-Jul-23 06:53N 29°42' W 095°03'0 0.0
2017-Jul-23 06:29N 29°42' W 095°03'0 0.0
2017-Jul-23 05:59N 29°42' W 095°03'0 0.0
2017-Jul-23 05:29N 29°42' W 095°03'0 0.0
2017-Jul-23 04:59N 29°42' W 095°03'0 0.0
2017-Jul-23 04:29N 29°42' W 095°03'0 0.0
2017-Jul-23 03:59N 29°42' W 095°03'0 0.0
2017-Jul-23 03:29N 29°42' W 095°03'0 0.0
2017-Jul-23 02:53N 29°42' W 095°03'0 0.0
2017-Jul-23 02:29N 29°42' W 095°03'0 0.0
2017-Jul-23 01:59N 29°42' W 095°03'0 0.0
2017-Jul-23 01:29N 29°42' W 095°03'0 0.0
2017-Jul-23 00:47N 29°42' W 095°03'0 0.0
2017-Jul-23 00:29N 29°42' W 095°03'0 0.0
2017-Jul-22 23:56N 29°42' W 095°03'0 0.0
2017-Jul-22 23:29N 29°42' W 095°03'0 0.0
2017-Jul-22 22:59N 29°42' W 095°03'0 0.0
2017-Jul-22 22:26N 29°42' W 095°03'0 0.0
2017-Jul-22 21:59N 29°42' W 095°03'0 0.0
2017-Jul-22 21:23N 29°42' W 095°03'0 0.0
2017-Jul-22 20:59N 29°42' W 095°03'0 0.0
2017-Jul-22 20:26N 29°42' W 095°03'0 0.0
2017-Jul-22 19:56N 29°42' W 095°03'0 0.0
2017-Jul-22 19:26N 29°42' W 095°03'0 0.0
2017-Jul-22 18:56N 29°42' W 095°03'0 0.0
2017-Jul-22 18:29N 29°42' W 095°03'0 0.0
2017-Jul-22 17:53N 29°42' W 095°03'0 0.0
2017-Jul-22 17:29N 29°42' W 095°03'0 0.0
2017-Jul-22 16:53N 29°42' W 095°03'0 0.0
2017-Jul-22 16:29N 29°42' W 095°03'0 0.0
2017-Jul-22 15:59N 29°42' W 095°03'0 0.0
2017-Jul-22 15:29N 29°42' W 095°03'0 0.0
2017-Jul-22 14:59N 29°42' W 095°03'0 0.0
2017-Jul-22 13:59N 29°42' W 095°03'0 0.0
2017-Jul-22 13:26N 29°42' W 095°03'0 0.2
2017-Jul-22 12:56N 29°42' W 095°03'0 0.2
2017-Jul-22 12:23N 29°42' W 095°03'0 0.0
2017-Jul-22 11:56N 29°42' W 095°03'0 0.0
2017-Jul-22 11:26N 29°42' W 095°03'0 0.0
2017-Jul-22 10:59N 29°42' W 095°03'0 0.0
2017-Jul-22 10:20N 29°42' W 095°03'0 0.0
2017-Jul-22 09:44N 29°42' W 095°03'0 0.0
2017-Jul-22 09:29N 29°42' W 095°03'0 0.0
2017-Jul-22 08:59N 29°42' W 095°03'0 0.0
2017-Jul-22 08:29N 29°42' W 095°03'0 0.0
2017-Jul-22 08:01N 29°42' W 095°03'0 0.2
2017-Jul-22 07:29N 29°43' W 095°03'1 2.6
2017-Jul-22 06:59N 29°43' W 095°01'4 7.2
2017-Jul-22 06:23N 29°46' W 095°05'3 6.8
2017-Jul-22 05:55N 29°44' W 095°08'3 5.7
2017-Jul-22 05:24N 29°45' W 095°11'0 0.1
2017-Jul-22 01:14N 29°45' W 095°11'2 7.6
2017-Jul-22 00:55N 29°44' W 095°08'3 5.7
2017-Jul-22 00:25N 29°46' W 095°05'3 7.8
2017-Jul-22 00:00N 29°44' W 095°02'1 2.8
2017-Jul-21 23:30N 29°42' W 095°03'0 0.2
2017-Jul-21 23:00N 29°43' W 095°03'2 2.8
2017-Jul-21 22:28N 29°44' W 095°01'4 0.1
2017-Jul-20 19:49N 29°46' W 095°05'1 0.1
2017-Jul-20 12:13N 29°47' W 095°05'0 0.0
2017-Jul-20 10:55N 29°47' W 095°05'0 0.0
2017-Jul-20 10:19N 29°47' W 095°05'0 0.0
2017-Jul-20 09:52N 29°47' W 095°05'0 0.0
2017-Jul-20 09:25N 29°47' W 095°05'0 0.0
2017-Jul-20 08:58N 29°47' W 095°05'0 0.0
2017-Jul-20 08:13N 29°47' W 095°05'0 0.0
2017-Jul-20 07:58N 29°47' W 095°05'0 0.0
2017-Jul-20 07:25N 29°47' W 095°05'0 0.0
2017-Jul-20 06:07N 29°47' W 095°05'0 0.0
2017-Jul-20 05:49N 29°47' W 095°05'0 0.0
2017-Jul-19 08:17N 29°47' W 095°05'0 0.0
2017-Jul-19 07:53N 29°47' W 095°05'0 0.0
2017-Jul-19 07:23N 29°47' W 095°05'0 0.0
2017-Jul-19 06:59N 29°47' W 095°05'0 0.0
2017-Jul-19 06:05N 29°47' W 095°05'0 0.0
2017-Jul-19 05:47N 29°47' W 095°05'0 0.0
2017-Jul-19 05:23N 29°47' W 095°05'0 0.0
2017-Jul-19 04:59N 29°47' W 095°05'0 0.0
2017-Jul-19 04:26N 29°47' W 095°05'0 0.0
2017-Jul-19 03:50N 29°47' W 095°05'0 0.0
2017-Jul-19 03:26N 29°47' W 095°05'0 0.0
2017-Jul-19 02:23N 29°47' W 095°05'0 0.0
2017-Jul-19 00:35N 29°47' W 095°05'0 0.0
2017-Jul-19 00:05N 29°47' W 095°05'0 0.0
2017-Jul-18 16:50N 29°47' W 095°05'0 0.0
2017-Jul-18 08:05N 29°47' W 095°05'0 0.0
2017-Jul-18 07:50N 29°47' W 095°05'0 0.0
2017-Jul-18 07:29N 29°47' W 095°05'0 0.0
2017-Jul-18 05:02N 29°47' W 095°05'0 0.0
2017-Jul-18 03:25N 29°47' W 095°05'0 0.0
2017-Jul-18 01:28N 29°47' W 095°05'1 0.1
2017-Jul-17 18:44N 29°46' W 095°05'1 0.6
2017-Jul-17 16:51N 29°46' W 095°06'1 1.7
2017-Jul-17 16:29N 29°46' W 095°05'  
Track history (hours):
 
Tides and Currents Weather Stations Pressure Air Temp Water Temp Dewpoint Dewpoint Depression Visibility Wind Speed Wind Dir Waves Ship Positions

Boo Sonier

Owner: LeBeouf Bros. Towing, LLC, Houma, LA. More information available from US FCC via Universal Licensing System and Coast Guard Vessel Documentation Center.

Last reported at 2017-Jul-27 04:21 UTC. Time now 2017-Sep-25 17:18 UTC.
Position N 29°32' W 094°53'.
Warning: this ship's position is months out of date.

Length 21 m.

Type: Tug. MMSI: 367524420.

Date/timePositionNaut miles runAvg speedWind from/ knotsBaromVisibWave heightAir tempDewpointWater temp
2017-Jul-27 04:21N 29°32' W 094°53'2 6.4
2017-Jul-27 04:01N 29°33' W 094°55'3 6.3
2017-Jul-27 03:31N 29°36' W 094°57'3 6.3
2017-Jul-27 03:00N 29°39' W 094°58'3 6.1
2017-Jul-27 02:31N 29°42' W 094°60'3 5.0
2017-Jul-27 02:00N 29°44' W 095°02'3 5.8
2017-Jul-27 01:29N 29°46' W 095°04'4 5.7
2017-Jul-27 00:51N 29°44' W 095°08'4 0.1
2017-Jul-24 23:48N 29°44' W 095°12'2 6.4
2017-Jul-24 23:30N 29°45' W 095°10'3 6.2
2017-Jul-24 22:58N 29°45' W 095°06'2 4.7
2017-Jul-24 22:30N 29°45' W 095°04'3 6.7
2017-Jul-24 22:00N 29°42' W 095°01'1 2.1
2017-Jul-24 21:20N 29°42' W 095°03'0 0.0
2017-Jul-24 20:38N 29°42' W 095°03'0 0.0
2017-Jul-24 20:29N 29°42' W 095°03'0 0.0
2017-Jul-24 19:56N 29°42' W 095°03'0 0.0
2017-Jul-24 19:23N 29°42' W 095°03'0 0.0
2017-Jul-24 18:50N 29°42' W 095°03'0 0.0
2017-Jul-24 18:23N 29°42' W 095°03'0 0.0
2017-Jul-24 17:59N 29°42' W 095°03'0 0.0
2017-Jul-24 17:26N 29°42' W 095°03'0 0.0
2017-Jul-24 15:38N 29°42' W 095°03'0 0.0
2017-Jul-24 12:59N 29°42' W 095°03'0 0.0
2017-Jul-24 12:05N 29°42' W 095°03'0 0.1
2017-Jul-24 11:59N 29°42' W 095°03'0 0.0
2017-Jul-24 11:29N 29°42' W 095°03'0 0.0
2017-Jul-24 10:59N 29°42' W 095°03'0 0.0
2017-Jul-24 10:29N 29°42' W 095°03'0 0.0
2017-Jul-24 09:59N 29°42' W 095°03'0 0.0
2017-Jul-24 09:26N 29°42' W 095°03'0 0.0
2017-Jul-24 08:59N 29°42' W 095°03'0 0.0
2017-Jul-24 08:29N 29°42' W 095°03'0 0.0
2017-Jul-24 07:50N 29°42' W 095°03'0 0.0
2017-Jul-24 07:29N 29°42' W 095°03'0 0.0
2017-Jul-24 06:59N 29°42' W 095°03'0 0.0
2017-Jul-24 06:26N 29°42' W 095°03'0 0.0
2017-Jul-24 05:59N 29°42' W 095°03'0 0.0
2017-Jul-24 05:23N 29°42' W 095°03'0 0.0
2017-Jul-24 04:53N 29°42' W 095°03'0 0.0
2017-Jul-24 04:29N 29°42' W 095°03'0 0.0
2017-Jul-24 03:38N 29°42' W 095°03'0 0.0
2017-Jul-24 03:29N 29°42' W 095°03'0 0.0
2017-Jul-24 02:50N 29°42' W 095°03'0 0.0
2017-Jul-24 02:14N 29°42' W 095°03'0 0.0
2017-Jul-24 00:05N 29°42' W 095°03'0 0.0
2017-Jul-23 23:59N 29°42' W 095°03'0 0.0
2017-Jul-23 22:29N 29°42' W 095°03'0 0.0
2017-Jul-23 21:23N 29°42' W 095°03'0 0.0
2017-Jul-23 20:11N 29°42' W 095°03'0 0.0
2017-Jul-23 19:50N 29°42' W 095°03'0 0.0
2017-Jul-23 19:26N 29°42' W 095°03'0 0.0
2017-Jul-23 18:47N 29°42' W 095°03'0 0.0
2017-Jul-23 18:29N 29°42' W 095°03'0 0.0
2017-Jul-23 17:50N 29°42' W 095°03'0 0.0
2017-Jul-23 17:20N 29°42' W 095°03'0 0.0
2017-Jul-23 16:59N 29°42' W 095°03'0 0.0
2017-Jul-23 16:20N 29°42' W 095°03'0 0.0
2017-Jul-23 15:44N 29°42' W 095°03'0 0.0
2017-Jul-23 15:26N 29°42' W 095°03'0 0.0
2017-Jul-23 14:59N 29°42' W 095°03'0 0.0
2017-Jul-23 13:44N 29°42' W 095°03'0 0.0
2017-Jul-23 13:23N 29°42' W 095°03'0 0.0
2017-Jul-23 12:59N 29°42' W 095°03'0 0.0
2017-Jul-23 12:29N 29°42' W 095°03'0 0.0
2017-Jul-23 11:11N 29°42' W 095°03'0 0.0
2017-Jul-23 10:50N 29°42' W 095°03'0 0.0
2017-Jul-23 10:29N 29°42' W 095°03'0 0.0
2017-Jul-23 09:59N 29°42' W 095°03'0 0.0
2017-Jul-23 09:29N 29°42' W 095°03'0 0.0
2017-Jul-23 08:59N 29°42' W 095°03'0 0.0
2017-Jul-23 08:29N 29°42' W 095°03'0 0.0
2017-Jul-23 07:56N 29°42' W 095°03'0 0.0
2017-Jul-23 07:26N 29°42' W 095°03'0 0.0
2017-Jul-23 06:53N 29°42' W 095°03'0 0.0
2017-Jul-23 06:29N 29°42' W 095°03'0 0.0
2017-Jul-23 05:59N 29°42' W 095°03'0 0.0
2017-Jul-23 05:29N 29°42' W 095°03'0 0.0
2017-Jul-23 04:59N 29°42' W 095°03'0 0.0
2017-Jul-23 04:29N 29°42' W 095°03'0 0.0
2017-Jul-23 03:59N 29°42' W 095°03'0 0.0
2017-Jul-23 03:29N 29°42' W 095°03'0 0.0
2017-Jul-23 02:53N 29°42' W 095°03'0 0.0
2017-Jul-23 02:29N 29°42' W 095°03'0 0.0
2017-Jul-23 01:59N 29°42' W 095°03'0 0.0
2017-Jul-23 01:29N 29°42' W 095°03'0 0.0
2017-Jul-23 00:47N 29°42' W 095°03'0 0.0
2017-Jul-23 00:29N 29°42' W 095°03'0 0.0
2017-Jul-22 23:56N 29°42' W 095°03'0 0.0
2017-Jul-22 23:29N 29°42' W 095°03'0 0.0
2017-Jul-22 22:59N 29°42' W 095°03'0 0.0
2017-Jul-22 22:26N 29°42' W 095°03'0 0.0
2017-Jul-22 21:59N 29°42' W 095°03'0 0.0
2017-Jul-22 21:23N 29°42' W 095°03'0 0.0
2017-Jul-22 20:59N 29°42' W 095°03'0 0.0
2017-Jul-22 20:26N 29°42' W 095°03'0 0.0
2017-Jul-22 19:56N 29°42' W 095°03'0 0.0
2017-Jul-22 19:26N 29°42' W 095°03'0 0.0
2017-Jul-22 18:56N 29°42' W 095°03'0 0.0
2017-Jul-22 18:29N 29°42' W 095°03'0 0.0
2017-Jul-22 17:53N 29°42' W 095°03'0 0.0
2017-Jul-22 17:29N 29°42' W 095°03'0 0.0
2017-Jul-22 16:53N 29°42' W 095°03'0 0.0
2017-Jul-22 16:29N 29°42' W 095°03'0 0.0
2017-Jul-22 15:59N 29°42' W 095°03'0 0.0
2017-Jul-22 15:29N 29°42' W 095°03'0 0.0
2017-Jul-22 14:59N 29°42' W 095°03'0 0.0
2017-Jul-22 13:59N 29°42' W 095°03'0 0.0
2017-Jul-22 13:26N 29°42' W 095°03'0 0.2
2017-Jul-22 12:56N 29°42' W 095°03'0 0.2
2017-Jul-22 12:23N 29°42' W 095°03'0 0.0
2017-Jul-22 11:56N 29°42' W 095°03'0 0.0
2017-Jul-22 11:26N 29°42' W 095°03'0 0.0
2017-Jul-22 10:59N 29°42' W 095°03'0 0.0
2017-Jul-22 10:20N 29°42' W 095°03'0 0.0
2017-Jul-22 09:44N 29°42' W 095°03'0 0.0
2017-Jul-22 09:29N 29°42' W 095°03'0 0.0
2017-Jul-22 08:59N 29°42' W 095°03'0 0.0
2017-Jul-22 08:29N 29°42' W 095°03'0 0.0
2017-Jul-22 08:01N 29°42' W 095°03'0 0.2
2017-Jul-22 07:29N 29°43' W 095°03'1 2.6
2017-Jul-22 06:59N 29°43' W 095°01'4 7.2
2017-Jul-22 06:23N 29°46' W 095°05'3 6.8
2017-Jul-22 05:55N 29°44' W 095°08'3 5.7
2017-Jul-22 05:24N 29°45' W 095°11'0 0.1
2017-Jul-22 01:14N 29°45' W 095°11'2 7.6
2017-Jul-22 00:55N 29°44' W 095°08'3 5.7
2017-Jul-22 00:25N 29°46' W 095°05'3 7.8
2017-Jul-22 00:00N 29°44' W 095°02'1 2.8
2017-Jul-21 23:30N 29°42' W 095°03'0 0.2
2017-Jul-21 23:00N 29°43' W 095°03'2 2.8
2017-Jul-21 22:28N 29°44' W 095°01'4 0.1
2017-Jul-20 19:49N 29°46' W 095°05'1 0.1
2017-Jul-20 12:13N 29°47' W 095°05'0 0.0
2017-Jul-20 10:55N 29°47' W 095°05'0 0.0
2017-Jul-20 10:19N 29°47' W 095°05'0 0.0
2017-Jul-20 09:52N 29°47' W 095°05'0 0.0
2017-Jul-20 09:25N 29°47' W 095°05'0 0.0
2017-Jul-20 08:58N 29°47' W 095°05'0 0.0
2017-Jul-20 08:13N 29°47' W 095°05'0 0.0
2017-Jul-20 07:58N 29°47' W 095°05'0 0.0
2017-Jul-20 07:25N 29°47' W 095°05'0 0.0
2017-Jul-20 06:07N 29°47' W 095°05'0 0.0
2017-Jul-20 05:49N 29°47' W 095°05'0 0.0
2017-Jul-19 08:17N 29°47' W 095°05'0 0.0
2017-Jul-19 07:53N 29°47' W 095°05'0 0.0
2017-Jul-19 07:23N 29°47' W 095°05'0 0.0
2017-Jul-19 06:59N 29°47' W 095°05'0 0.0
2017-Jul-19 06:05N 29°47' W 095°05'0 0.0
2017-Jul-19 05:47N 29°47' W 095°05'0 0.0
2017-Jul-19 05:23N 29°47' W 095°05'0 0.0
2017-Jul-19 04:59N 29°47' W 095°05'0 0.0
2017-Jul-19 04:26N 29°47' W 095°05'0 0.0
2017-Jul-19 03:50N 29°47' W 095°05'0 0.0
2017-Jul-19 03:26N 29°47' W 095°05'0 0.0
2017-Jul-19 02:23N 29°47' W 095°05'0 0.0
2017-Jul-19 00:35N 29°47' W 095°05'0 0.0
2017-Jul-19 00:05N 29°47' W 095°05'0 0.0
2017-Jul-18 16:50N 29°47' W 095°05'0 0.0
2017-Jul-18 08:05N 29°47' W 095°05'0 0.0
2017-Jul-18 07:50N 29°47' W 095°05'0 0.0
2017-Jul-18 07:29N 29°47' W 095°05'0 0.0
2017-Jul-18 05:02N 29°47' W 095°05'0 0.0
2017-Jul-18 03:25N 29°47' W 095°05'0 0.0
2017-Jul-18 01:28N 29°47' W 095°05'1 0.1
2017-Jul-17 18:44N 29°46' W 095°05'1 0.6
2017-Jul-17 16:51N 29°46' W 095°06'1 1.7
2017-Jul-17 16:29N 29°46' W 095°05'  

Dump ship's entire track history